Time;durP1;ratioP1;P1;durP2;ratioP2;P2;SDS_P1;SDS_P2;PMS_P1;PMS_P2;Temp;Humidity;BMP_temperature;BMP_pressure;BME280_temperature;BME280_humidity;BME280_pressure;Samples;Min_cycle;Max_cycle;Signal;HPM_P1;HPM_P2
2024/01/04 00:01:50;;;;;;;2.10;0.93;;;8.40;99.90;;;;;;4995147;28;20185;-47
2024/01/04 00:04:17;;;;;;;2.20;1.00;;;8.40;99.90;;;;;;4995278;28;20189;-48
2024/01/04 00:06:44;;;;;;;2.37;0.80;;;8.40;99.90;;;;;;4978207;28;20190;-46
2024/01/04 00:09:11;;;;;;;3.23;1.20;;;8.40;99.90;;;;;;4995156;28;20210;-47
2024/01/04 00:11:37;;;;;;;4.53;0.93;;;8.40;99.90;;;;;;4995444;28;20212;-47
2024/01/04 00:14:05;;;;;;;3.60;1.20;;;8.40;99.90;;;;;;4995309;28;20191;-46
2024/01/04 00:16:34;;;;;;;2.47;1.07;;;8.40;99.90;;;;;;4978570;28;20194;-47
2024/01/04 00:19:03;;;;;;;3.67;1.43;;;8.40;99.90;;;;;;4995853;28;20265;-47
2024/01/04 00:21:28;;;;;;;7.33;1.97;;;8.40;99.90;;;;;;4995419;28;20209;-47
2024/01/04 00:23:54;;;;;;;5.47;2.00;;;8.40;99.90;;;;;;4995631;28;20263;-47
2024/01/04 00:26:19;;;;;;;5.37;1.50;;;8.40;99.90;;;;;;4996087;28;20176;-47
2024/01/04 00:28:45;;;;;;;4.80;1.70;;;8.40;99.90;;;;;;4995843;28;20183;-47
2024/01/04 00:31:11;;;;;;;2.73;1.10;;;8.30;99.90;;;;;;4995488;28;20217;-47
2024/01/04 00:33:36;;;;;;;6.50;1.17;;;8.30;99.90;;;;;;4995300;28;20242;-47
2024/01/04 00:36:02;;;;;;;2.97;1.27;;;8.30;99.90;;;;;;4997872;28;20218;-47
2024/01/04 00:38:28;;;;;;;4.37;1.13;;;8.30;99.90;;;;;;5003324;28;20216;-47
2024/01/04 00:40:53;;;;;;;5.47;1.30;;;8.30;99.90;;;;;;4994989;28;20210;-46
2024/01/04 00:43:19;;;;;;;3.40;1.50;;;8.30;99.90;;;;;;4977573;28;20191;-47
2024/01/04 00:45:44;;;;;;;5.43;1.43;;;8.30;99.90;;;;;;4994608;28;20184;-46
2024/01/04 00:48:11;;;;;;;4.93;1.80;;;8.30;99.90;;;;;;4976923;28;20651;-45
2024/01/04 00:50:43;;;;;;;5.37;1.63;;;8.30;99.90;;;;;;4994533;28;20213;-46
2024/01/04 00:53:09;;;;;;;4.73;1.70;;;8.30;99.90;;;;;;4989539;28;20202;-47
2024/01/04 00:55:34;;;;;;;5.77;1.70;;;8.30;99.90;;;;;;4994111;28;20264;-49
2024/01/04 00:58:02;;;;;;;10.83;1.60;;;8.30;99.90;;;;;;4994168;28;20193;-47
2024/01/04 01:00:28;;;;;;;6.00;1.73;;;8.30;99.90;;;;;;4976269;28;20246;-46
2024/01/04 01:02:53;;;;;;;4.33;1.40;;;8.30;99.90;;;;;;4976897;28;20523;-47
2024/01/04 01:05:20;;;;;;;9.73;1.77;;;8.30;99.90;;;;;;4994682;28;20267;-47
2024/01/04 01:07:46;;;;;;;8.93;2.00;;;8.30;99.90;;;;;;4994400;28;20179;-46
2024/01/04 01:10:12;;;;;;;5.47;1.97;;;8.30;99.90;;;;;;4994895;28;20703;-47
2024/01/04 01:12:40;;;;;;;5.00;1.80;;;8.30;99.90;;;;;;4977626;28;20564;-46
2024/01/04 01:15:09;;;;;;;3.63;1.47;;;8.30;99.90;;;;;;4994535;28;20645;-47
2024/01/04 01:17:35;;;;;;;2.90;1.10;;;8.30;99.90;;;;;;4994314;28;20198;-47
2024/01/04 01:20:00;;;;;;;3.20;1.00;;;8.30;99.90;;;;;;4977060;28;20230;-47
2024/01/04 01:22:26;;;;;;;6.93;1.70;;;8.30;99.90;;;;;;4994126;28;20246;-46
2024/01/04 01:24:52;;;;;;;4.00;1.87;;;8.30;99.90;;;;;;4974031;28;20187;-46
2024/01/04 01:27:18;;;;;;;8.73;1.47;;;8.30;99.90;;;;;;4977092;28;20709;-47
2024/01/04 01:29:45;;;;;;;4.57;1.33;;;8.30;99.90;;;;;;4994282;28;20210;-45
2024/01/04 01:32:11;;;;;;;9.50;1.63;;;8.30;99.90;;;;;;4975999;28;20655;-47
2024/01/04 01:34:41;;;;;;;5.53;1.83;;;8.30;99.90;;;;;;4993783;28;20185;-47
2024/01/04 01:37:07;;;;;;;6.97;2.10;;;8.30;99.90;;;;;;4993809;28;20237;-47
2024/01/04 01:39:32;;;;;;;6.40;1.70;;;8.30;99.90;;;;;;4976520;28;20216;-47
2024/01/04 01:41:58;;;;;;;7.20;1.53;;;8.30;99.90;;;;;;4993659;28;20195;-45
2024/01/04 01:44:25;;;;;;;4.17;1.67;;;8.40;99.90;;;;;;4993893;28;20188;-47
2024/01/04 01:46:50;;;;;;;6.77;1.90;;;8.40;99.90;;;;;;4994207;28;20191;-47
2024/01/04 01:49:16;;;;;;;4.87;1.73;;;8.40;99.90;;;;;;4995765;28;20647;-46
2024/01/04 01:51:43;;;;;;;4.70;1.60;;;8.40;99.90;;;;;;4997613;28;20348;-46
2024/01/04 01:54:11;;;;;;;3.23;1.47;;;8.40;99.90;;;;;;4980173;28;20207;-46
2024/01/04 01:56:37;;;;;;;5.17;2.00;;;8.30;99.90;;;;;;4980170;28;20786;-47
2024/01/04 01:59:06;;;;;;;7.90;2.17;;;8.40;99.90;;;;;;4997412;28;20293;-47
2024/01/04 02:01:33;;;;;;;3.33;1.63;;;8.40;99.90;;;;;;4997207;28;20669;-47
2024/01/04 02:04:02;;;;;;;4.13;1.50;;;8.40;99.90;;;;;;4979848;28;20182;-47
2024/01/04 02:06:27;;;;;;;7.23;2.10;;;8.50;99.90;;;;;;4997923;28;20189;-46
2024/01/04 02:08:53;;;;;;;8.53;2.10;;;8.40;99.90;;;;;;4997157;28;20189;-46
2024/01/04 02:11:22;;;;;;;8.20;2.13;;;8.50;99.90;;;;;;4997070;28;20197;-47
2024/01/04 02:13:51;;;;;;;7.83;1.90;;;8.50;99.90;;;;;;4996923;28;20702;-46
2024/01/04 02:16:20;;;;;;;5.70;2.17;;;8.50;99.90;;;;;;4996967;28;20187;-47
2024/01/04 02:18:46;;;;;;;6.73;2.03;;;8.50;99.90;;;;;;4979402;28;20186;-47
2024/01/04 02:21:12;;;;;;;7.27;2.33;;;8.50;99.90;;;;;;4979691;28;20264;-45
2024/01/04 02:23:39;;;;;;;7.87;2.00;;;8.50;99.90;;;;;;4997044;28;20190;-46
2024/01/04 02:26:04;;;;;;;5.60;2.07;;;8.50;99.90;;;;;;4997035;28;20242;-47
2024/01/04 02:28:30;;;;;;;4.67;2.40;;;8.50;99.90;;;;;;4997012;28;20182;-46
2024/01/04 02:30:57;;;;;;;6.73;2.10;;;8.50;99.90;;;;;;4979283;28;20246;-48
2024/01/04 02:33:22;;;;;;;6.47;2.20;;;8.50;99.90;;;;;;4996931;28;20222;-47
2024/01/04 02:35:49;;;;;;;3.27;1.83;;;8.40;99.90;;;;;;4996650;28;20190;-47
2024/01/04 02:38:18;;;;;;;5.53;2.00;;;8.50;99.90;;;;;;4996600;28;20192;-47
2024/01/04 02:40:46;;;;;;;7.13;2.67;;;8.50;99.90;;;;;;4979010;28;20262;-47
2024/01/04 02:43:11;;;;;;;4.67;2.00;;;8.50;99.90;;;;;;4979422;28;20179;-47
2024/01/04 02:45:37;;;;;;;10.43;2.53;;;8.40;99.90;;;;;;4979082;28;20189;-47
2024/01/04 02:48:03;;;;;;;8.40;2.40;;;8.40;99.90;;;;;;4979151;28;20185;-47
2024/01/04 02:50:31;;;;;;;6.93;2.27;;;8.40;99.90;;;;;;4996829;28;20677;-47
2024/01/04 02:52:59;;;;;;;9.30;2.53;;;8.40;99.90;;;;;;4996625;28;20216;-46
2024/01/04 02:55:29;;;;;;;5.17;2.27;;;8.40;99.90;;;;;;4996106;28;20753;-47
2024/01/04 02:57:55;;;;;;;6.30;2.20;;;8.40;99.90;;;;;;4996756;28;20198;-47
2024/01/04 03:00:22;;;;;;;9.47;2.67;;;8.40;99.90;;;;;;4994890;28;20244;-46
2024/01/04 03:02:51;;;;;;;7.23;2.33;;;8.40;99.90;;;;;;4996452;28;20546;-46
2024/01/04 03:05:18;;;;;;;9.43;2.40;;;8.30;99.90;;;;;;4996033;28;20205;-47
2024/01/04 03:07:44;;;;;;;3.57;2.13;;;8.30;99.90;;;;;;4995953;28;20184;-47
2024/01/04 03:10:10;;;;;;;8.27;2.00;;;8.30;99.90;;;;;;4995876;28;20203;-45
2024/01/04 03:12:41;;;;;;;5.47;1.97;;;8.30;99.90;;;;;;4978869;28;20652;-48
2024/01/04 03:15:07;;;;;;;4.43;1.77;;;8.30;99.90;;;;;;4995897;28;20202;-46
2024/01/04 03:17:33;;;;;;;5.13;1.23;;;8.20;99.90;;;;;;4996155;28;20187;-47
2024/01/04 03:19:58;;;;;;;8.30;1.90;;;8.20;99.90;;;;;;4995707;28;20211;-48
2024/01/04 03:22:24;;;;;;;7.70;1.70;;;8.20;99.90;;;;;;4995757;28;20519;-47
2024/01/04 03:24:50;;;;;;;7.23;1.90;;;8.10;99.90;;;;;;4978249;28;20190;-47
2024/01/04 03:27:15;;;;;;;8.57;2.90;;;8.10;99.90;;;;;;4995674;28;20215;-48
2024/01/04 03:29:41;;;;;;;7.80;1.83;;;8.20;99.90;;;;;;4995804;28;20202;-48
2024/01/04 03:32:07;;;;;;;6.53;2.17;;;8.10;99.90;;;;;;4978302;28;20186;-47
2024/01/04 03:34:33;;;;;;;7.83;2.23;;;8.10;99.90;;;;;;4996601;28;20188;-46
2024/01/04 03:36:59;;;;;;;8.37;2.07;;;8.20;99.90;;;;;;4995568;28;20515;-46
2024/01/04 03:39:25;;;;;;;10.27;2.40;;;8.10;99.90;;;;;;4995557;28;20209;-48
2024/01/04 03:41:50;;;;;;;8.40;2.03;;;8.10;99.90;;;;;;4995632;28;20184;-46
2024/01/04 03:44:19;;;;;;;5.37;2.27;;;8.10;99.90;;;;;;4995608;28;20178;-48
2024/01/04 03:46:44;;;;;;;8.43;2.57;;;8.10;99.90;;;;;;4995284;28;20638;-47
2024/01/04 03:49:11;;;;;;;6.40;2.60;;;8.10;99.90;;;;;;4996031;28;20246;-46
2024/01/04 03:51:37;;;;;;;6.27;2.83;;;8.10;99.90;;;;;;4977942;28;20713;-47
2024/01/04 03:54:03;;;;;;;11.97;3.73;;;8.10;99.90;;;;;;4978051;28;20285;-46
2024/01/04 03:56:32;;;;;;;7.40;2.77;;;8.10;99.90;;;;;;4995629;28;20165;-47
2024/01/04 03:58:57;;;;;;;6.20;2.80;;;8.10;99.90;;;;;;4995244;28;20206;-46
2024/01/04 04:01:23;;;;;;;7.60;3.53;;;8.10;99.90;;;;;;4995045;28;20243;-47
2024/01/04 04:03:49;;;;;;;11.50;3.40;;;8.20;99.90;;;;;;4995191;28;20185;-47
2024/01/04 04:06:18;;;;;;;12.80;3.70;;;8.20;99.90;;;;;;4995474;28;20199;-46
2024/01/04 04:08:47;;;;;;;6.47;3.27;;;8.20;99.90;;;;;;4977013;28;20198;-46
2024/01/04 04:11:19;;;;;;;9.27;4.13;;;8.10;99.90;;;;;;4994499;28;20197;-47
2024/01/04 04:13:45;;;;;;;8.57;3.03;;;8.10;99.90;;;;;;4977972;28;20183;-47
2024/01/04 04:16:10;;;;;;;9.60;3.03;;;8.10;99.90;;;;;;4994913;28;20185;-47
2024/01/04 04:18:36;;;;;;;9.23;3.20;;;8.10;99.90;;;;;;4994696;28;20654;-47
2024/01/04 04:21:02;;;;;;;7.10;2.93;;;8.10;99.90;;;;;;4993874;28;20227;-47
2024/01/04 04:23:31;;;;;;;11.10;2.93;;;8.10;99.90;;;;;;4994651;28;20257;-47
2024/01/04 04:25:59;;;;;;;8.07;2.53;;;8.10;99.90;;;;;;4994625;28;20182;-48
2024/01/04 04:28:28;;;;;;;6.83;2.97;;;8.20;99.90;;;;;;4994983;28;20317;-48
2024/01/04 04:30:56;;;;;;;6.03;2.70;;;8.20;99.90;;;;;;4995010;28;20216;-48
2024/01/04 04:33:22;;;;;;;8.60;2.33;;;8.20;99.90;;;;;;4994678;28;20182;-47
2024/01/04 04:35:51;;;;;;;6.00;2.30;;;8.20;99.90;;;;;;4994708;28;20213;-47
2024/01/04 04:38:21;;;;;;;5.07;2.10;;;8.20;99.90;;;;;;4994399;28;20222;-46
2024/01/04 04:40:46;;;;;;;6.70;2.30;;;8.20;99.90;;;;;;4994293;28;20236;-48
2024/01/04 04:43:12;;;;;;;6.03;2.00;;;8.20;99.90;;;;;;4994288;28;20179;-47
2024/01/04 04:45:38;;;;;;;5.87;2.00;;;8.20;99.90;;;;;;4994036;28;20206;-44
2024/01/04 04:48:04;;;;;;;2.33;1.10;;;8.20;99.90;;;;;;4994445;28;20281;-47
2024/01/04 04:50:29;;;;;;;3.50;1.60;;;8.20;99.90;;;;;;4994491;28;20609;-46
2024/01/04 04:52:55;;;;;;;4.87;1.63;;;8.20;99.90;;;;;;4994565;28;20216;-46
2024/01/04 04:55:21;;;;;;;4.87;1.30;;;8.20;99.90;;;;;;4994163;28;20204;-47
2024/01/04 04:57:46;;;;;;;4.07;1.23;;;8.20;99.90;;;;;;4976884;28;20586;-48
2024/01/04 05:00:12;;;;;;;1.63;0.70;;;8.10;99.90;;;;;;4976734;28;20228;-48
2024/01/04 05:02:38;;;;;;;3.50;1.43;;;8.10;99.90;;;;;;4994120;28;20183;-46
2024/01/04 05:05:04;;;;;;;6.97;1.20;;;8.10;99.90;;;;;;4977283;28;20194;-46
2024/01/04 05:07:31;;;;;;;2.10;0.97;;;8.00;99.90;;;;;;4994338;28;20217;-48
2024/01/04 05:09:56;;;;;;;2.63;1.13;;;8.00;99.90;;;;;;4993973;28;20267;-46
2024/01/04 05:12:22;;;;;;;2.13;1.23;;;8.00;99.90;;;;;;4994271;28;20187;-47
2024/01/04 05:14:51;;;;;;;3.00;1.30;;;8.00;99.90;;;;;;4960925;28;20194;-46
2024/01/04 05:17:16;;;;;;;1.00;0.70;;;8.00;99.90;;;;;;4995121;28;20191;-47
2024/01/04 05:19:46;;;;;;;1.03;0.87;;;8.00;99.90;;;;;;4977005;28;20246;-47
2024/01/04 05:22:13;;;;;;;1.57;1.00;;;9.10;99.90;;;;;;4994718;28;20262;-46
2024/01/04 05:24:39;;;;;;;2.03;0.90;;;8.00;99.90;;;;;;4997859;28;20182;-46
2024/01/04 05:27:06;;;;;;;1.47;0.90;;;7.90;99.90;;;;;;4999467;28;20185;-47
2024/01/04 05:29:31;;;;;;;2.63;0.97;;;7.90;99.90;;;;;;4998844;28;20186;-45
2024/01/04 05:31:57;;;;;;;2.60;1.10;;;7.90;99.90;;;;;;4998577;28;20663;-47
2024/01/04 05:34:29;;;;;;;0.63;0.60;;;7.80;99.90;;;;;;4998490;28;20175;-48
2024/01/04 05:36:54;;;;;;;1.90;0.87;;;7.80;99.90;;;;;;4998191;28;20262;-47
2024/01/04 05:39:26;;;;;;;0.93;0.73;;;7.80;99.90;;;;;;4980399;28;20292;-48
2024/01/04 05:41:53;;;;;;;1.13;1.03;;;7.80;99.90;;;;;;4997865;28;20282;-46
2024/01/04 05:44:18;;;;;;;4.00;1.40;;;7.80;99.90;;;;;;4998386;28;20543;-47
2024/01/04 05:46:44;;;;;;;2.07;1.30;;;7.80;99.90;;;;;;4980823;28;20193;-47
2024/01/04 05:49:11;;;;;;;3.17;1.53;;;7.80;99.90;;;;;;4997952;28;20220;-47
2024/01/04 05:51:36;;;;;;;4.37;1.60;;;7.80;99.90;;;;;;4964242;28;20215;-46
2024/01/04 05:54:02;;;;;;;6.30;1.80;;;7.80;99.90;;;;;;4997348;28;20202;-45
2024/01/04 05:56:28;;;;;;;3.37;1.90;;;7.80;99.90;;;;;;4997844;28;20629;-46
2024/01/04 05:58:54;;;;;;;2.67;1.53;;;7.80;99.90;;;;;;4998167;28;20701;-47
2024/01/04 06:01:20;;;;;;;5.20;1.67;;;7.70;99.90;;;;;;4965655;28;20213;-47
2024/01/04 06:03:49;;;;;;;2.47;1.03;;;7.70;99.90;;;;;;4998290;28;20535;-46
2024/01/04 06:06:15;;;;;;;0.70;0.70;;;7.70;99.90;;;;;;4998497;28;20208;-46
2024/01/04 06:08:45;;;;;;;1.07;0.97;;;7.70;99.90;;;;;;4997583;28;20176;-48
2024/01/04 06:11:13;;;;;;;3.00;1.00;;;7.60;99.90;;;;;;4979926;28;20236;-47
2024/01/04 06:13:42;;;;;;;2.17;0.97;;;7.60;99.90;;;;;;4997485;28;20218;-47
2024/01/04 06:16:08;;;;;;;1.23;0.90;;;7.60;99.90;;;;;;4979945;28;20225;-45
2024/01/04 06:18:35;;;;;;;2.47;0.80;;;7.60;99.90;;;;;;4998314;28;20624;-46
2024/01/04 06:21:05;;;;;;;1.43;0.73;;;7.60;99.90;;;;;;4980252;28;20255;-48
2024/01/04 06:23:31;;;;;;;2.13;0.80;;;7.60;99.90;;;;;;4997412;28;20174;-46
2024/01/04 06:26:01;;;;;;;1.73;0.80;;;7.50;99.90;;;;;;4979953;28;20185;-46
2024/01/04 06:28:27;;;;;;;2.07;1.17;;;7.50;99.90;;;;;;4997449;28;20666;-46
2024/01/04 06:30:54;;;;;;;2.03;1.00;;;7.50;99.90;;;;;;4997453;28;20296;-48
2024/01/04 06:33:23;;;;;;;1.50;0.80;;;7.50;99.90;;;;;;4997225;28;20241;-47
2024/01/04 06:35:49;;;;;;;0.90;0.70;;;7.50;99.90;;;;;;4997011;28;20241;-46
2024/01/04 06:38:18;;;;;;;2.90;1.00;;;7.50;99.90;;;;;;4996764;28;20183;-47
2024/01/04 06:40:44;;;;;;;1.77;1.10;;;7.50;99.90;;;;;;4997224;28;20216;-47
2024/01/04 06:43:09;;;;;;;1.53;0.90;;;7.50;99.90;;;;;;4979163;28;20183;-47
2024/01/04 06:45:37;;;;;;;2.33;0.97;;;7.50;99.90;;;;;;4996956;28;20206;-47
2024/01/04 06:48:03;;;;;;;1.93;1.10;;;7.50;99.90;;;;;;4997629;28;20202;-47
2024/01/04 06:50:30;;;;;;;1.40;1.30;;;7.40;99.90;;;;;;4996476;28;20214;-47
2024/01/04 06:52:55;;;;;;;2.03;1.60;;;7.40;99.90;;;;;;4996964;28;20186;-47
2024/01/04 06:55:21;;;;;;;6.13;2.00;;;7.50;99.90;;;;;;4996384;28;20209;-47
2024/01/04 06:57:47;;;;;;;3.63;1.63;;;7.50;99.90;;;;;;4979376;28;20273;-48
2024/01/04 07:00:13;;;;;;;3.13;2.27;;;7.40;99.90;;;;;;4996053;28;20260;-47
2024/01/04 07:02:39;;;;;;;2.93;2.20;;;7.40;99.90;;;;;;4978811;28;20190;-47
2024/01/04 07:05:06;;;;;;;3.67;2.37;;;7.50;99.90;;;;;;4996354;28;20205;-47
2024/01/04 07:07:33;;;;;;;4.77;2.80;;;7.40;99.90;;;;;;4978965;28;20194;-47
2024/01/04 07:09:59;;;;;;;4.80;2.10;;;7.50;99.90;;;;;;4995607;28;20697;-46
2024/01/04 07:12:28;;;;;;;5.37;2.37;;;7.50;99.90;;;;;;4978782;28;20194;-46
2024/01/04 07:14:58;;;;;;;2.10;1.90;;;7.50;99.90;;;;;;4978700;28;20206;-48
2024/01/04 07:17:24;;;;;;;6.47;2.60;;;7.50;99.90;;;;;;4995882;28;20188;-47
2024/01/04 07:19:54;;;;;;;4.73;2.57;;;7.50;99.90;;;;;;4978375;28;20229;-47
2024/01/04 07:22:23;;;;;;;4.37;2.43;;;7.50;99.90;;;;;;4996256;28;20171;-46
2024/01/04 07:24:48;;;;;;;5.43;2.43;;;7.60;99.90;;;;;;4996273;28;20183;-48
2024/01/04 07:27:15;;;;;;;4.73;2.47;;;7.60;99.90;;;;;;4996162;28;20375;-46
2024/01/04 07:29:40;;;;;;;4.43;2.37;;;7.60;99.90;;;;;;4996209;28;20285;-45
2024/01/04 07:32:09;;;;;;;7.63;2.90;;;7.60;99.90;;;;;;4962478;28;20190;-44
2024/01/04 07:34:40;;;;;;;10.27;3.63;;;7.60;99.90;;;;;;4995920;28;20178;-46
2024/01/04 07:37:08;;;;;;;5.00;2.80;;;7.60;99.90;;;;;;4994750;28;20542;-47
2024/01/04 07:39:35;;;;;;;4.30;1.67;;;7.60;99.90;;;;;;4978245;28;20231;-46
2024/01/04 07:42:01;;;;;;;5.17;1.83;;;7.60;99.90;;;;;;4995966;28;20175;-47
2024/01/04 07:44:30;;;;;;;8.63;2.57;;;7.60;99.90;;;;;;4995542;28;20234;-46
2024/01/04 07:46:56;;;;;;;7.27;3.37;;;7.70;99.90;;;;;;4995287;28;20188;-47
2024/01/04 07:49:28;;;;;;;5.73;2.97;;;7.70;99.90;;;;;;4978857;28;20174;-47
2024/01/04 07:51:53;;;;;;;6.40;3.17;;;7.70;99.90;;;;;;4995515;28;20222;-47
2024/01/04 07:54:26;;;;;;;5.80;3.13;;;7.70;99.90;;;;;;4977717;28;20202;-46
2024/01/04 07:56:52;;;;;;;7.67;1.90;;;7.70;99.90;;;;;;4995175;28;20213;-46
2024/01/04 07:59:22;;;;;;;7.50;2.93;;;7.70;99.90;;;;;;4995198;28;20704;-46
2024/01/04 08:01:49;;;;;;;9.70;2.73;;;7.80;99.90;;;;;;4995939;28;20170;-46
2024/01/04 08:04:14;;;;;;;4.70;2.00;;;7.80;99.90;;;;;;4995256;28;20188;-47
2024/01/04 08:06:40;;;;;;;7.23;2.50;;;7.80;99.90;;;;;;4977669;28;20717;-46
2024/01/04 08:09:06;;;;;;;8.00;2.07;;;7.80;99.90;;;;;;4977887;28;20183;-47
2024/01/04 08:11:32;;;;;;;5.03;1.73;;;7.80;99.90;;;;;;4995062;28;20615;-47
2024/01/04 08:13:58;;;;;;;3.87;1.60;;;7.80;99.90;;;;;;4995357;28;20184;-47
2024/01/04 08:16:27;;;;;;;7.37;2.10;;;7.90;99.90;;;;;;4995034;28;20188;-46
2024/01/04 08:18:53;;;;;;;4.90;1.63;;;7.90;99.90;;;;;;4994918;28;20190;-47
2024/01/04 08:21:20;;;;;;;8.03;2.20;;;7.90;99.90;;;;;;4977356;28;20198;-47
2024/01/04 08:23:50;;;;;;;6.27;1.57;;;7.90;99.90;;;;;;4994690;28;20182;-47
2024/01/04 08:26:16;;;;;;;5.10;1.57;;;7.90;99.90;;;;;;4994906;28;20163;-46
2024/01/04 08:28:42;;;;;;;13.43;1.80;;;7.90;99.90;;;;;;4977311;28;20176;-46
2024/01/04 08:31:07;;;;;;;10.90;1.60;;;8.00;99.90;;;;;;4977253;28;20602;-47
2024/01/04 08:33:33;;;;;;;4.93;1.40;;;8.00;99.90;;;;;;4995012;28;20589;-47
2024/01/04 08:36:02;;;;;;;4.10;1.80;;;8.00;99.90;;;;;;4994646;28;20701;-47
2024/01/04 08:38:30;;;;;;;8.13;1.80;;;8.00;99.90;;;;;;4994611;28;20193;-46
2024/01/04 08:40:56;;;;;;;5.20;1.40;;;8.00;99.90;;;;;;4976607;28;20234;-47
2024/01/04 08:46:44;;;;;;;3.70;1.23;;;8.10;99.90;;;;;;5042897;22;20282;-47
2024/01/04 08:49:11;;;;;;;3.73;1.53;;;8.10;99.90;;;;;;5074834;28;20222;-47
2024/01/04 08:51:36;;;;;;;4.60;1.60;;;8.20;99.90;;;;;;5074995;28;20196;-47
2024/01/04 08:54:02;;;;;;;4.13;1.30;;;8.20;99.90;;;;;;5055952;28;20176;-45
2024/01/04 08:56:28;;;;;;;7.00;1.33;;;8.20;99.90;;;;;;5073775;28;20183;-47
2024/01/04 08:58:54;;;;;;;4.50;1.70;;;8.30;99.90;;;;;;5054767;28;20178;-47
2024/01/04 09:01:19;;;;;;;2.93;1.53;;;8.40;99.90;;;;;;5055926;28;20276;-47
2024/01/04 09:03:49;;;;;;;7.40;1.90;;;8.40;99.90;;;;;;5056502;28;20177;-47
2024/01/04 09:06:14;;;;;;;3.43;1.13;;;8.30;99.90;;;;;;5074407;28;20182;-47
2024/01/04 09:08:40;;;;;;;5.77;1.77;;;8.30;99.90;;;;;;5056046;28;20519;-46
2024/01/04 09:11:08;;;;;;;5.93;1.50;;;8.30;99.90;;;;;;5056042;28;20210;-47
2024/01/04 09:13:34;;;;;;;5.07;1.70;;;8.30;99.90;;;;;;5074308;28;20190;-47
2024/01/04 09:16:01;;;;;;;3.93;1.40;;;8.30;99.90;;;;;;5073569;28;20655;-46
2024/01/04 09:18:29;;;;;;;6.43;1.80;;;8.30;99.90;;;;;;5073730;28;20183;-46
2024/01/04 09:20:54;;;;;;;5.97;1.70;;;8.30;99.90;;;;;;5055869;28;20215;-47
2024/01/04 09:23:21;;;;;;;5.33;1.90;;;8.30;99.90;;;;;;5074323;28;20245;-47
2024/01/04 09:25:48;;;;;;;9.00;2.20;;;8.30;99.90;;;;;;5073519;28;20203;-47
2024/01/04 09:28:14;;;;;;;1.30;1.20;;;8.30;99.90;;;;;;5073954;28;20182;-47
2024/01/04 09:30:42;;;;;;;3.97;2.20;;;8.30;99.90;;;;;;5055465;28;20304;-48
2024/01/04 09:33:08;;;;;;;5.67;2.60;;;8.40;99.90;;;;;;5073357;28;20172;-47
2024/01/04 09:35:35;;;;;;;7.27;2.17;;;8.40;99.90;;;;;;5073352;28;20249;-46
2024/01/04 09:38:01;;;;;;;6.03;2.20;;;8.40;99.90;;;;;;5055147;28;20188;-45
2024/01/04 09:40:31;;;;;;;4.07;2.30;;;8.40;99.90;;;;;;5073241;28;20229;-46
2024/01/04 09:43:00;;;;;;;4.93;2.37;;;8.40;99.90;;;;;;5073452;28;20159;-47
2024/01/04 09:45:28;;;;;;;6.40;2.17;;;8.40;99.90;;;;;;5073388;28;20178;-47
2024/01/04 09:47:56;;;;;;;6.93;2.30;;;8.40;99.90;;;;;;5055194;28;20321;-46
2024/01/04 09:50:23;;;;;;;6.33;1.77;;;8.40;99.90;;;;;;5073020;28;20723;-47
2024/01/04 09:52:56;;;;;;;3.43;2.10;;;8.40;99.90;;;;;;5073584;28;20182;-46
2024/01/04 09:55:24;;;;;;;4.40;2.10;;;8.50;99.90;;;;;;5056376;28;20176;-47
2024/01/04 09:57:51;;;;;;;8.57;1.90;;;8.50;99.90;;;;;;5072972;28;20296;-46
2024/01/04 10:00:17;;;;;;;8.53;1.90;;;8.50;99.90;;;;;;5072870;28;20207;-47
2024/01/04 10:02:46;;;;;;;2.10;1.63;;;8.60;99.90;;;;;;5072859;28;20179;-47
2024/01/04 10:05:20;;;;;;;2.53;1.37;;;8.60;99.90;;;;;;5072782;28;20186;-46
2024/01/04 10:08:05;;;;;;;8.07;1.83;;;8.60;99.90;;;;;;5073184;28;20158;-47
2024/01/04 10:10:35;;;;;;;4.60;1.73;;;8.70;99.90;;;;;;5074900;28;20237;-45
2024/01/04 10:13:05;;;;;;;3.67;1.20;;;8.70;99.90;;;;;;5076693;28;20261;-46
2024/01/04 10:15:36;;;;;;;7.90;1.90;;;8.70;99.90;;;;;;5076566;28;20692;-48
2024/01/04 10:18:03;;;;;;;4.50;1.77;;;8.80;99.90;;;;;;5076314;28;20651;-47
2024/01/04 10:20:33;;;;;;;2.03;1.20;;;8.70;99.90;;;;;;5076371;28;20216;-48
2024/01/04 10:22:58;;;;;;;5.50;1.57;;;8.80;99.90;;;;;;5076504;28;20676;-46
2024/01/04 10:25:24;;;;;;;5.67;1.90;;;8.80;99.90;;;;;;5076139;28;20195;-46
2024/01/04 10:27:57;;;;;;;7.53;1.50;;;8.80;99.90;;;;;;5076351;28;20169;-46
2024/01/04 10:30:22;;;;;;;3.03;1.20;;;8.80;99.90;;;;;;5076293;28;20208;-47
2024/01/04 10:32:51;;;;;;;12.30;1.83;;;8.80;99.90;;;;;;5076024;28;20176;-47
2024/01/04 10:35:27;;;;;;;5.30;1.50;;;8.80;99.90;;;;;;5076207;28;20189;-47
2024/01/04 10:38:00;;;;;;;5.97;1.60;;;8.80;99.90;;;;;;5075902;28;20227;-46
2024/01/04 10:40:26;;;;;;;2.77;1.40;;;8.80;99.90;;;;;;5076268;28;20627;-46
2024/01/04 10:42:56;;;;;;;8.30;1.53;;;8.80;99.90;;;;;;5075940;28;20207;-46
2024/01/04 10:45:30;;;;;;;5.03;1.73;;;8.80;99.90;;;;;;5076087;28;20650;-47
2024/01/04 10:47:56;;;;;;;7.67;1.50;;;8.80;99.90;;;;;;5075909;28;20169;-47
2024/01/04 10:50:25;;;;;;;6.30;1.53;;;8.80;99.90;;;;;;5057812;28;20321;-46
2024/01/04 10:52:54;;;;;;;10.97;1.73;;;8.80;99.90;;;;;;5075922;28;20632;-47
2024/01/04 10:55:20;;;;;;;8.50;1.83;;;8.80;99.90;;;;;;5075650;28;20558;-45
2024/01/04 10:57:48;;;;;;;7.63;1.90;;;8.80;99.90;;;;;;5076251;28;20241;-45
2024/01/04 11:00:16;;;;;;;6.30;1.87;;;8.80;99.90;;;;;;5075438;28;20212;-46
2024/01/04 11:02:43;;;;;;;10.27;2.37;;;8.80;99.90;;;;;;5075685;28;20639;-49
2024/01/04 11:05:10;;;;;;;9.97;2.13;;;8.80;99.90;;;;;;5075737;28;20201;-47
2024/01/04 11:07:38;;;;;;;7.33;1.97;;;8.80;99.90;;;;;;5075671;28;20174;-47
2024/01/04 11:10:04;;;;;;;12.13;2.90;;;8.70;99.90;;;;;;5075350;28;20221;-46
2024/01/04 11:12:37;;;;;;;10.17;2.13;;;8.70;99.90;;;;;;5075801;28;20187;-47
2024/01/04 11:15:06;;;;;;;11.03;2.20;;;8.70;99.90;;;;;;5075720;28;20195;-47
2024/01/04 11:17:49;;;;;;;12.20;2.40;;;8.60;99.90;;;;;;5057446;28;20210;-47
2024/01/04 11:20:42;;;;;;;16.30;2.90;;;8.60;99.90;;;;;;5075979;28;20218;-47
2024/01/04 11:23:32;;;;;;;17.77;2.90;;;8.60;99.90;;;;;;5075618;28;20158;-46
2024/01/04 11:26:27;;;;;;;9.53;2.33;;;8.60;99.90;;;;;;5075706;28;20162;-47
2024/01/04 11:28:57;;;;;;;17.67;3.27;;;8.60;99.90;;;;;;5075625;28;20164;-47
2024/01/04 11:31:24;;;;;;;11.30;2.97;;;8.60;99.90;;;;;;5058050;28;20281;-46
2024/01/04 11:33:52;;;;;;;19.83;3.43;;;8.60;99.90;;;;;;5075048;28;20182;-46
2024/01/04 11:36:21;;;;;;;18.17;3.43;;;8.60;99.90;;;;;;5057684;28;20169;-47
2024/01/04 11:38:47;;;;;;;14.40;3.10;;;8.60;99.90;;;;;;5074977;28;20185;-49
2024/01/04 11:41:13;;;;;;;15.20;3.20;;;8.60;99.90;;;;;;5075125;28;20746;-45
2024/01/04 11:43:40;;;;;;;17.50;3.40;;;8.60;99.90;;;;;;5057752;28;20270;-47
2024/01/04 11:46:22;;;;;;;15.97;2.83;;;8.60;99.90;;;;;;5075296;28;20184;-48
2024/01/04 11:49:14;;;;;;;16.07;3.53;;;8.50;99.90;;;;;;5058430;28;20227;-46
2024/01/04 11:51:44;;;;;;;20.23;2.87;;;8.50;99.90;;;;;;5075236;28;20205;-46
2024/01/04 11:54:12;;;;;;;18.97;2.90;;;8.50;99.90;;;;;;5075364;28;20540;-47
2024/01/04 11:56:38;;;;;;;19.60;2.97;;;8.50;99.90;;;;;;5057093;28;20189;-46
2024/01/04 11:59:18;;;;;;;13.10;3.03;;;8.50;99.90;;;;;;5074761;28;20190;-47
2024/01/04 12:01:44;;;;;;;13.37;2.73;;;8.50;99.90;;;;;;5074553;28;20221;-46
2024/01/04 12:04:14;;;;;;;12.27;2.50;;;8.50;99.90;;;;;;5074645;28;20188;-45
2024/01/04 12:06:41;;;;;;;12.63;2.70;;;8.50;99.90;;;;;;5074310;28;20261;-48
2024/01/04 12:09:09;;;;;;;20.07;2.70;;;8.50;99.90;;;;;;5056430;28;20656;-46
2024/01/04 12:11:39;;;;;;;12.60;2.20;;;8.50;99.90;;;;;;5074094;28;20186;-48
2024/01/04 12:14:08;;;;;;;18.03;3.17;;;8.50;99.90;;;;;;5074154;28;20168;-45
2024/01/04 12:16:34;;;;;;;13.00;2.03;;;8.60;99.90;;;;;;5074574;28;20232;-45
2024/01/04 12:19:02;;;;;;;18.17;2.40;;;8.60;99.90;;;;;;5074872;28;20202;-47
2024/01/04 12:21:28;;;;;;;18.20;2.60;;;8.70;99.90;;;;;;5074197;28;20607;-46
2024/01/04 12:23:56;;;;;;;11.33;1.83;;;8.70;99.90;;;;;;5074481;28;20217;-45
2024/01/04 12:26:28;;;;;;;13.10;2.00;;;8.80;99.90;;;;;;5073898;28;20231;-46
2024/01/04 12:28:55;;;;;;;9.60;2.17;;;8.80;99.90;;;;;;5074181;28;20188;-46
2024/01/04 12:31:24;;;;;;;16.13;2.30;;;8.80;99.90;;;;;;5074058;28;20261;-48
2024/01/04 12:33:53;;;;;;;16.97;2.50;;;8.90;99.90;;;;;;5055868;28;20729;-46
2024/01/04 12:36:24;;;;;;;14.87;3.20;;;8.90;99.90;;;;;;5074037;28;20174;-46
2024/01/04 12:39:09;;;;;;;13.10;2.13;;;8.90;99.90;;;;;;5074080;28;20174;-46
2024/01/04 12:41:37;;;;;;;14.90;2.10;;;8.90;99.90;;;;;;5073606;28;20198;-46
2024/01/04 12:44:10;;;;;;;13.00;2.30;;;8.90;99.90;;;;;;5073627;28;20261;-46
2024/01/04 12:46:35;;;;;;;6.07;1.80;;;8.90;99.90;;;;;;5074205;28;20163;-46
2024/01/04 12:49:10;;;;;;;15.70;2.43;;;8.90;99.90;;;;;;5073506;28;20187;-47
2024/01/04 12:51:40;;;;;;;10.07;2.37;;;9.00;99.90;;;;;;5074049;28;20230;-47
2024/01/04 12:54:10;;;;;;;10.00;2.07;;;9.00;99.90;;;;;;5073814;28;20175;-46
2024/01/04 12:56:38;;;;;;;11.07;2.30;;;9.00;99.90;;;;;;5073709;28;20181;-47
2024/01/04 12:59:04;;;;;;;13.23;2.60;;;9.00;99.90;;;;;;5073894;28;20176;-48
2024/01/04 13:01:31;;;;;;;7.03;1.73;;;9.10;99.90;;;;;;5055595;28;20200;-46